createdAt,value
2023-04-24T00:11:19.794Z,12.27
2023-04-24T00:31:17.148Z,12.50
2023-04-24T00:57:01.585Z,12.63
2023-04-24T01:22:12.944Z,13.67
2023-04-24T01:52:47.333Z,12.67
2023-04-24T02:17:24.556Z,16.50
2023-04-24T02:37:45.055Z,14.57
2023-04-24T03:08:48.313Z,16.20
2023-04-24T03:13:07.686Z,15.37
2023-04-24T03:44:11.876Z,15.93
2023-04-24T04:04:04.139Z,17.17
2023-04-24T04:34:04.419Z,16.57
2023-04-24T04:54:10.734Z,15.27
2023-04-24T05:54:40.280Z,17.23
2023-04-24T06:15:01.389Z,13.00
2023-04-24T06:40:46.157Z,12.87
2023-04-24T07:00:52.350Z,11.87
2023-04-24T07:26:37.219Z,12.70
2023-04-24T08:12:06.808Z,12.82
2023-04-24T08:32:08.719Z,9.75
2023-04-24T09:07:55.662Z,10.23
2023-04-24T09:28:02.604Z,10.15
2023-04-24T09:58:15.339Z,10.10
2023-04-24T10:18:23.428Z,11.23
2023-04-24T10:44:12.913Z,8.95
2023-04-24T11:09:32.414Z,8.10
2023-04-24T11:40:14.142Z,8.15
2023-04-24T12:05:02.135Z,6.75
2023-04-24T12:35:54.348Z,8.20
2023-04-24T13:05:43.364Z,10.43
2023-04-24T13:31:07.535Z,6.50
2023-04-24T13:46:49.928Z,4.97
2023-04-24T14:17:19.772Z,5.43
2023-04-24T14:42:30.630Z,5.18
2023-04-24T15:18:12.738Z,7.93
2023-04-24T15:48:34.391Z,8.60
2023-04-24T16:18:44.168Z,7.03
2023-04-24T16:44:13.918Z,6.73
2023-04-24T17:04:36.010Z,6.20
2023-04-24T17:24:54.053Z,10.83
2023-04-24T17:29:14.366Z,11.27
2023-04-24T18:40:52.505Z,9.93
2023-04-24T19:10:36.707Z,8.73
2023-04-24T19:31:27.014Z,8.67
2023-04-24T20:52:37.052Z,10.13
2023-04-24T21:22:25.140Z,11.20
2023-04-24T21:43:05.885Z,11.00
2023-04-24T22:18:46.527Z,13.23
2023-04-24T22:49:11.619Z,15.33
2023-04-24T23:24:03.975Z,15.93
2023-04-24T23:40:05.945Z,17.80
2023-04-24T23:44:14.200Z,17.20
